createdAt,value
2022-11-22T00:00:58.227Z,99885.63
2022-11-22T00:03:26.162Z,99890.97
2022-11-22T00:05:54.329Z,99880.19
2022-11-22T00:08:22.250Z,99883.69
2022-11-22T00:10:52.329Z,99870.56
2022-11-22T00:13:21.187Z,99867.84
2022-11-22T00:15:59.942Z,99866.66
2022-11-22T00:18:28.288Z,99876.06
2022-11-22T00:20:56.506Z,99875.69
2022-11-22T00:23:24.403Z,99889.22
2022-11-22T00:25:53.689Z,99885.25
2022-11-22T00:28:23.732Z,99903.88
2022-11-22T00:30:51.726Z,99892.50
2022-11-22T00:33:19.761Z,99887.38
2022-11-22T00:35:48.096Z,99889.22
2022-11-22T00:38:16.140Z,99882.97
2022-11-22T00:40:44.456Z,99873.53
2022-11-22T00:43:13.759Z,99878.84
2022-11-22T00:45:43.229Z,99878.84
2022-11-22T00:48:11.223Z,99876.22
2022-11-22T00:50:39.523Z,99880.72
2022-11-22T00:53:08.028Z,99874.97
2022-11-22T00:55:36.577Z,99875.69
2022-11-22T00:58:04.482Z,99883.63
2022-11-22T01:00:33.883Z,99873.38
2022-11-22T01:03:01.790Z,99870.41
2022-11-22T01:05:29.947Z,99869.97
2022-11-22T01:07:58.027Z,99856.91
2022-11-22T01:10:25.915Z,99857.53
2022-11-22T01:12:53.765Z,99853.81
2022-11-22T01:15:21.740Z,99861.31
2022-11-22T01:17:50.927Z,99864.66
2022-11-22T01:20:18.889Z,99860.34
2022-11-22T01:22:46.989Z,99861.56
2022-11-22T01:25:14.901Z,99856.16
2022-11-22T01:27:42.799Z,99850.50
2022-11-22T01:30:11.519Z,99832.66
2022-11-22T01:32:40.054Z,99829.50
2022-11-22T01:35:10.777Z,99834.44
2022-11-22T01:37:38.915Z,99830.75
2022-11-22T01:40:08.374Z,99822.22
2022-11-22T01:42:50.398Z,99841.72
2022-11-22T01:45:42.239Z,99842.25
2022-11-22T01:48:22.612Z,99837.22
2022-11-22T01:50:57.192Z,99843.38
2022-11-22T01:53:29.484Z,99838.75
2022-11-22T01:55:59.390Z,99836.59
2022-11-22T01:58:30.425Z,99840.56
2022-11-22T02:00:58.895Z,99847.66
2022-11-22T02:03:30.312Z,99848.91
2022-11-22T02:06:00.513Z,99846.28
2022-11-22T02:08:35.997Z,99838.34
2022-11-22T02:11:05.063Z,99827.13
2022-11-22T02:13:36.103Z,99822.94
2022-11-22T02:16:04.765Z,99822.94
2022-11-22T02:18:36.017Z,99819.31
2022-11-22T02:21:06.158Z,99812.25
2022-11-22T02:23:53.935Z,99805.44
2022-11-22T02:26:26.819Z,99812.41
2022-11-22T02:28:57.555Z,99798.44
2022-11-22T02:31:35.612Z,99799.84
2022-11-22T02:34:03.532Z,99797.06
2022-11-22T02:36:34.723Z,99794.28
2022-11-22T02:39:02.655Z,99787.97
2022-11-22T02:41:33.143Z,99788.75
2022-11-22T02:44:01.173Z,99796.31
2022-11-22T02:46:29.047Z,99790.38
2022-11-22T02:48:56.956Z,99786.06
2022-11-22T02:51:26.375Z,99780.69
2022-11-22T02:53:54.631Z,99774.88
2022-11-22T02:56:22.523Z,99779.00
2022-11-22T02:58:51.759Z,99767.56
2022-11-22T03:01:19.796Z,99761.06
2022-11-22T03:03:47.772Z,99771.31
2022-11-22T03:06:15.623Z,99773.47
2022-11-22T03:08:44.353Z,99765.88
2022-11-22T03:11:12.598Z,99756.19
2022-11-22T03:13:40.657Z,99747.06
2022-11-22T03:16:09.964Z,99739.47
2022-11-22T03:18:38.645Z,99730.41
2022-11-22T03:21:07.755Z,99735.66
2022-11-22T03:23:36.137Z,99738.13
2022-11-22T03:26:09.031Z,99757.50
2022-11-22T03:28:37.139Z,99765.16
2022-11-22T03:31:06.351Z,99764.59
2022-11-22T03:33:36.371Z,99747.94
2022-11-22T03:36:05.191Z,99754.00
2022-11-22T03:38:33.066Z,99750.56
2022-11-22T03:41:01.050Z,99755.56
2022-11-22T03:43:29.203Z,99752.97
2022-11-22T03:45:57.118Z,99747.25
2022-11-22T03:48:25.241Z,99750.38
2022-11-22T03:50:54.423Z,99739.50
2022-11-22T03:53:23.171Z,99739.50
2022-11-22T03:55:51.128Z,99733.41
2022-11-22T03:58:19.046Z,99735.66
2022-11-22T04:00:47.034Z,99740.31
2022-11-22T04:03:15.101Z,99744.69
2022-11-22T04:05:43.201Z,99734.88
2022-11-22T04:08:12.477Z,99729.44
2022-11-22T04:10:40.500Z,99724.84
2022-11-22T04:13:08.524Z,99733.44
2022-11-22T04:15:37.000Z,99737.63
2022-11-22T04:18:05.032Z,99740.06
2022-11-22T04:20:50.634Z,99737.56
2022-11-22T04:23:21.784Z,99749.84
2022-11-22T04:25:50.835Z,99741.72
2022-11-22T04:28:24.512Z,99729.50
2022-11-22T04:31:16.323Z,99732.69
2022-11-22T04:33:44.491Z,99729.06
2022-11-22T04:36:13.544Z,99741.72
2022-11-22T04:38:42.998Z,99721.06
2022-11-22T04:41:11.108Z,99730.03
2022-11-22T04:43:56.374Z,99719.31
2022-11-22T04:46:24.300Z,99709.16
2022-11-22T04:48:52.183Z,99700.13
2022-11-22T04:51:37.490Z,99709.72
2022-11-22T04:54:06.820Z,99710.13
2022-11-22T04:56:34.739Z,99702.31
2022-11-22T04:59:02.698Z,99703.03
2022-11-22T05:01:30.621Z,99708.84
2022-11-22T05:03:58.481Z,99708.97
2022-11-22T05:06:26.525Z,99706.53
2022-11-22T05:08:54.343Z,99703.91
2022-11-22T05:11:23.569Z,99701.91
2022-11-22T05:13:51.640Z,99705.66
2022-11-22T05:16:19.607Z,99707.56
2022-11-22T05:18:59.573Z,99718.25
2022-11-22T05:21:28.679Z,99707.63
2022-11-22T05:23:56.577Z,99704.22
2022-11-22T05:26:27.870Z,99693.19
2022-11-22T05:28:58.013Z,99716.81
2022-11-22T05:31:28.052Z,99711.19
2022-11-22T05:33:57.769Z,99712.69
2022-11-22T05:36:25.912Z,99716.00
2022-11-22T05:38:54.121Z,99701.69
2022-11-22T05:41:22.028Z,99708.34
2022-11-22T05:43:51.349Z,99712.44
2022-11-22T05:46:24.901Z,99714.34
2022-11-22T05:48:54.595Z,99702.78
2022-11-22T05:51:26.009Z,99695.31
2022-11-22T05:53:55.900Z,99715.41
2022-11-22T05:56:25.218Z,99716.72
2022-11-22T05:58:54.804Z,99717.69
2022-11-22T06:01:25.083Z,99721.31
2022-11-22T06:03:53.620Z,99718.09
2022-11-22T06:06:22.118Z,99714.59
2022-11-22T06:08:51.786Z,99708.69
2022-11-22T06:11:21.294Z,99721.25
2022-11-22T06:13:51.148Z,99716.72
2022-11-22T06:16:20.540Z,99715.84
2022-11-22T06:18:48.925Z,99718.41
2022-11-22T06:21:18.863Z,99716.50
2022-11-22T06:23:47.114Z,99713.81
2022-11-22T06:26:17.355Z,99716.84
2022-11-22T06:28:46.326Z,99734.78
2022-11-22T06:31:16.156Z,99725.59
2022-11-22T06:33:45.811Z,99739.75
2022-11-22T06:36:15.640Z,99743.91
2022-11-22T06:38:44.631Z,99741.69
2022-11-22T06:41:14.176Z,99745.34
2022-11-22T06:43:48.322Z,99745.41
2022-11-22T06:46:17.874Z,99737.28
2022-11-22T06:48:48.124Z,99737.03
2022-11-22T06:51:18.130Z,99737.34
2022-11-22T06:53:48.484Z,99741.56
2022-11-22T06:56:18.727Z,99747.22
2022-11-22T06:58:47.859Z,99740.69
2022-11-22T07:01:18.344Z,99739.13
2022-11-22T07:03:48.515Z,99743.72
2022-11-22T07:06:18.833Z,99741.75
2022-11-22T07:08:48.035Z,99736.16
2022-11-22T07:11:17.829Z,99735.91
2022-11-22T07:13:46.591Z,99732.50
2022-11-22T07:16:16.669Z,99732.22
2022-11-22T07:18:45.488Z,99730.13
2022-11-22T07:21:16.535Z,99730.50
2022-11-22T07:23:46.467Z,99736.69
2022-11-22T07:26:15.531Z,99733.53
2022-11-22T07:28:44.877Z,99733.44
2022-11-22T07:31:14.914Z,99732.94
2022-11-22T07:33:42.955Z,99727.69
2022-11-22T07:36:12.748Z,99727.31
2022-11-22T07:38:42.536Z,99722.63
2022-11-22T07:41:11.211Z,99727.63
2022-11-22T07:43:39.488Z,99720.44
2022-11-22T07:46:09.358Z,99725.63
2022-11-22T07:48:37.359Z,99725.50
2022-11-22T07:51:07.608Z,99728.97
2022-11-22T07:53:36.679Z,99728.41
2022-11-22T07:56:07.463Z,99726.69
2022-11-22T07:58:36.271Z,99725.97
2022-11-22T08:01:07.962Z,99724.69
2022-11-22T08:03:37.622Z,99728.59
2022-11-22T08:06:07.716Z,99726.28
2022-11-22T08:08:37.974Z,99720.44
2022-11-22T08:11:08.419Z,99716.44
2022-11-22T08:13:37.407Z,99734.50
2022-11-22T08:16:07.868Z,99735.69
2022-11-22T08:18:38.649Z,99745.00
2022-11-22T08:21:08.641Z,99738.53
2022-11-22T08:23:38.392Z,99742.47
2022-11-22T08:26:09.940Z,99752.13
2022-11-22T08:28:38.414Z,99761.00
2022-11-22T08:31:08.744Z,99752.56
2022-11-22T08:33:37.174Z,99760.75
2022-11-22T08:36:05.927Z,99753.75
2022-11-22T08:38:34.074Z,99761.47
2022-11-22T08:41:01.937Z,99764.56
2022-11-22T08:43:34.619Z,99764.34
2022-11-22T08:46:03.145Z,99771.69
2022-11-22T08:48:33.034Z,99767.16
2022-11-22T08:51:03.404Z,99762.38
2022-11-22T08:53:33.697Z,99767.09
2022-11-22T08:56:02.505Z,99775.94
2022-11-22T08:58:33.098Z,99762.19
2022-11-22T09:01:06.041Z,99771.06
2022-11-22T09:03:35.439Z,99761.34
2022-11-22T09:09:09.108Z,99775.69
2022-11-22T09:11:40.834Z,99791.22
2022-11-22T09:14:10.272Z,99793.69
2022-11-22T09:16:38.219Z,99783.69
2022-11-22T09:19:06.301Z,99797.06
2022-11-22T09:21:34.274Z,99795.72
2022-11-22T09:24:02.251Z,99790.88
2022-11-22T09:26:30.770Z,99796.13
2022-11-22T09:28:58.877Z,99786.81
2022-11-22T09:31:28.419Z,99794.44
2022-11-22T09:33:56.694Z,99796.69
2022-11-22T09:36:29.460Z,99795.00
2022-11-22T09:38:58.240Z,99805.47
2022-11-22T09:42:03.108Z,99801.63
2022-11-22T09:44:44.058Z,99810.53
2022-11-22T09:47:24.716Z,99804.53
2022-11-22T09:50:04.434Z,99793.59
2022-11-22T09:52:39.793Z,99801.63
2022-11-22T09:55:17.769Z,99811.75
2022-11-22T09:57:51.164Z,99807.91
2022-11-22T10:00:22.478Z,99812.25
2022-11-22T10:03:00.766Z,99807.09
2022-11-22T10:05:35.730Z,99809.38
2022-11-22T10:08:29.273Z,99801.91
2022-11-22T10:10:59.959Z,99800.94
2022-11-22T10:13:35.359Z,99802.97
2022-11-22T10:16:13.307Z,99805.63
2022-11-22T10:18:46.787Z,99804.75
2022-11-22T10:21:16.006Z,99805.25
2022-11-22T10:23:45.633Z,99806.97
2022-11-22T10:26:23.513Z,99801.63
2022-11-22T10:29:02.787Z,99802.97
2022-11-22T10:31:46.067Z,99800.78
2022-11-22T10:34:27.096Z,99810.59
2022-11-22T10:37:03.560Z,99807.88
2022-11-22T10:39:48.310Z,99817.19
2022-11-22T10:42:33.628Z,99811.56
2022-11-22T10:45:09.309Z,99812.72
2022-11-22T10:47:57.735Z,99815.50
2022-11-22T10:50:33.320Z,99810.00
2022-11-22T10:53:06.237Z,99817.19
2022-11-22T10:55:59.228Z,99807.88
2022-11-22T10:58:38.178Z,99807.78
2022-11-22T11:01:19.551Z,99805.66
2022-11-22T11:03:50.183Z,99804.78
2022-11-22T11:06:33.289Z,99800.47
2022-11-22T11:12:16.313Z,99813.88
2022-11-22T11:14:49.569Z,99809.53
2022-11-22T11:17:27.613Z,99814.50
2022-11-22T11:20:00.605Z,99814.66
2022-11-22T11:23:12.638Z,99809.81
2022-11-22T11:25:33.778Z,99818.00
2022-11-22T11:28:06.189Z,99805.91
2022-11-22T11:30:40.592Z,99817.16
2022-11-22T11:33:20.302Z,99805.84
2022-11-22T11:35:48.781Z,99808.63
2022-11-22T11:38:33.100Z,99811.34
2022-11-22T11:41:18.790Z,99811.19
2022-11-22T11:43:50.543Z,99806.56
2022-11-22T11:46:23.198Z,99800.59
2022-11-22T11:48:52.113Z,99804.00
2022-11-22T11:51:27.034Z,99792.44
2022-11-22T11:54:11.168Z,99800.88
2022-11-22T11:56:53.163Z,99799.13
2022-11-22T11:59:27.035Z,99805.53
2022-11-22T12:01:59.681Z,99793.19
2022-11-22T12:04:30.897Z,99787.56
2022-11-22T12:07:04.339Z,99781.94
2022-11-22T12:09:46.784Z,99794.91
2022-11-22T12:12:26.433Z,99791.81
2022-11-22T12:15:11.167Z,99789.97
2022-11-22T12:17:50.231Z,99789.00
2022-11-22T12:20:23.774Z,99797.19
2022-11-22T12:23:05.040Z,99795.38
2022-11-22T12:25:38.052Z,99790.56
2022-11-22T12:28:18.698Z,99792.09
2022-11-22T12:30:49.997Z,99792.22
2022-11-22T12:33:25.547Z,99800.22
2022-11-22T12:35:56.680Z,99793.38
2022-11-22T12:38:30.343Z,99787.44
2022-11-22T12:41:04.414Z,99781.97
2022-11-22T12:43:39.280Z,99788.31
2022-11-22T12:46:13.683Z,99788.38
2022-11-22T12:48:49.217Z,99791.78
2022-11-22T12:51:26.904Z,99794.72
2022-11-22T12:54:04.531Z,99789.31
2022-11-22T12:56:41.817Z,99785.84
2022-11-22T12:59:21.275Z,99793.75
2022-11-22T13:01:53.874Z,99789.94
2022-11-22T13:04:31.599Z,99794.34
2022-11-22T13:07:08.568Z,99772.19
2022-11-22T13:09:40.139Z,99768.53
2022-11-22T13:12:13.002Z,99774.59
2022-11-22T13:14:45.731Z,99771.41
2022-11-22T13:17:18.011Z,99776.16
2022-11-22T13:19:50.360Z,99791.34
2022-11-22T13:22:31.312Z,99796.09
2022-11-22T13:25:13.347Z,99806.25
2022-11-22T13:27:46.244Z,99808.41
2022-11-22T13:30:21.065Z,99806.78
2022-11-22T13:32:52.003Z,99818.66
2022-11-22T13:35:27.376Z,99814.78
2022-11-22T13:37:58.787Z,99817.88
2022-11-22T13:40:30.674Z,99823.84
2022-11-22T13:43:35.061Z,99830.31
2022-11-22T13:46:05.610Z,99831.91
2022-11-22T13:49:10.860Z,99830.63
2022-11-22T13:51:56.857Z,99823.63
2022-11-22T13:55:04.004Z,99830.13
2022-11-22T13:57:35.743Z,99837.56
2022-11-22T14:00:49.488Z,99836.97
2022-11-22T14:03:43.127Z,99836.97
2022-11-22T14:06:32.359Z,99839.31
2022-11-22T14:09:18.148Z,99838.97
2022-11-22T14:12:01.160Z,99827.56
2022-11-22T14:14:38.273Z,99830.44
2022-11-22T14:17:16.562Z,99821.75
2022-11-22T14:20:01.118Z,99827.91
2022-11-22T14:22:45.598Z,99837.91
2022-11-22T14:25:42.559Z,99835.94
2022-11-22T14:28:23.170Z,99829.91
2022-11-22T14:30:52.859Z,99822.31
2022-11-22T14:33:22.304Z,99824.94
2022-11-22T14:36:17.072Z,99829.19
2022-11-22T14:38:48.339Z,99830.75
2022-11-22T14:41:44.981Z,99835.19
2022-11-22T14:44:19.716Z,99832.44
2022-11-22T14:46:57.053Z,99833.53
2022-11-22T14:49:37.387Z,99828.72
2022-11-22T14:52:15.887Z,99841.56
2022-11-22T14:54:49.943Z,99841.19
2022-11-22T14:57:22.082Z,99829.63
2022-11-22T15:00:18.108Z,99850.63
2022-11-22T15:03:16.678Z,99852.03
2022-11-22T15:09:14.768Z,99854.63
2022-11-22T15:09:25.517Z,99853.19
2022-11-22T15:12:14.739Z,99852.66
2022-11-22T15:59:10.926Z,99878.06
2022-11-22T16:01:45.789Z,99876.63
2022-11-22T16:04:23.189Z,99883.63
2022-11-22T16:06:53.003Z,99872.53
2022-11-22T16:09:27.135Z,99878.56
2022-11-22T16:12:01.447Z,99889.25
2022-11-22T16:14:44.738Z,99886.47
2022-11-22T16:17:26.172Z,99890.44
2022-11-22T16:19:54.353Z,99892.25
2022-11-22T16:22:32.813Z,99892.97
2022-11-22T16:25:22.443Z,99889.41
2022-11-22T16:27:50.751Z,99888.78
2022-11-22T16:30:23.439Z,99888.25
2022-11-22T16:32:56.524Z,99890.00
2022-11-22T16:35:31.453Z,99892.38
2022-11-22T16:37:59.438Z,99887.53
2022-11-22T16:40:27.570Z,99899.59
2022-11-22T16:42:55.413Z,99903.44
2022-11-22T16:45:24.020Z,99897.72
2022-11-22T16:48:16.601Z,99899.81
2022-11-22T16:50:45.141Z,99894.53
2022-11-22T16:53:15.643Z,99906.31
2022-11-22T16:55:44.462Z,99894.53
2022-11-22T16:58:18.252Z,99896.41
2022-11-22T17:00:47.835Z,99902.81
2022-11-22T17:03:20.640Z,99905.63
2022-11-22T17:05:48.600Z,99891.13
2022-11-22T17:08:18.447Z,99898.09
2022-11-22T17:10:48.586Z,99910.34
2022-11-22T17:13:21.920Z,99908.34
2022-11-22T17:15:50.191Z,99905.28
2022-11-22T17:18:19.647Z,99907.50
2022-11-22T17:20:48.097Z,99905.63
2022-11-22T17:23:21.036Z,99905.28
2022-11-22T17:25:49.107Z,99906.94
2022-11-22T17:28:17.297Z,99911.41
2022-11-22T17:30:45.669Z,99914.25
2022-11-22T17:33:13.793Z,99937.84
2022-11-22T17:35:43.296Z,99934.53
2022-11-22T17:38:13.175Z,99942.59
2022-11-22T17:40:42.426Z,99943.59
2022-11-22T17:43:10.915Z,99935.50
2022-11-22T17:45:43.151Z,99949.22
2022-11-22T17:48:13.539Z,99953.44
2022-11-22T17:50:43.155Z,99948.50
2022-11-22T17:53:13.824Z,99948.84
2022-11-22T17:56:08.964Z,99949.88
2022-11-22T17:58:30.150Z,99942.09
2022-11-22T18:01:05.783Z,99941.66
2022-11-22T18:03:37.031Z,99941.44
2022-11-22T18:06:06.969Z,99946.59
2022-11-22T18:08:35.388Z,99944.69
2022-11-22T18:11:03.910Z,99960.97
2022-11-22T18:13:33.374Z,99959.34
2022-11-22T18:16:03.950Z,99957.78
2022-11-22T18:18:55.606Z,99955.84
2022-11-22T18:21:22.424Z,99946.22
2022-11-22T18:23:50.873Z,99946.59
2022-11-22T18:31:55.430Z,99932.22
2022-11-22T18:34:23.852Z,99936.44
2022-11-22T18:36:55.802Z,99930.41
2022-11-22T18:39:27.911Z,99932.41
2022-11-22T18:41:55.947Z,99933.53
2022-11-22T18:44:23.968Z,99931.84
2022-11-22T18:46:52.215Z,99934.09
2022-11-22T18:49:20.225Z,99946.38
2022-11-22T18:51:48.118Z,99937.69
2022-11-22T18:54:18.375Z,99943.03
2022-11-22T18:56:46.308Z,99934.13
2022-11-22T18:59:14.607Z,99934.91
2022-11-22T19:01:43.071Z,99941.25
2022-11-22T19:04:12.942Z,99934.19
2022-11-22T19:06:41.963Z,99936.09
2022-11-22T19:09:10.757Z,99926.59
2022-11-22T19:11:40.447Z,99925.31
2022-11-22T19:14:11.697Z,99933.16
2022-11-22T19:16:39.891Z,99939.84
2022-11-22T19:19:10.858Z,99928.13
2022-11-22T19:21:38.911Z,99923.88
2022-11-22T19:24:07.532Z,99927.69
2022-11-22T19:26:37.251Z,99923.03
2022-11-22T19:29:06.716Z,99922.69
2022-11-22T19:31:37.181Z,99922.22
2022-11-22T19:34:05.997Z,99933.94
2022-11-22T19:36:36.422Z,99922.75
2022-11-22T19:39:06.206Z,99927.16
2022-11-22T19:41:35.995Z,99928.59
2022-11-22T19:44:05.052Z,99928.75
2022-11-22T19:46:39.224Z,99929.63
2022-11-22T19:49:07.353Z,99927.69
2022-11-22T19:51:36.997Z,99929.41
2022-11-22T19:54:05.723Z,99925.78
2022-11-22T19:56:35.767Z,99925.19
2022-11-22T19:59:08.682Z,99924.31
2022-11-22T20:01:41.563Z,99930.72
2022-11-22T20:04:10.602Z,99923.81
2022-11-22T20:06:38.641Z,99918.47
2022-11-22T20:09:10.251Z,99923.28
2022-11-22T20:11:38.969Z,99921.50
2022-11-22T20:14:07.741Z,99923.66
2022-11-22T20:16:36.218Z,99923.09
2022-11-22T20:19:09.931Z,99915.19
2022-11-22T20:21:39.383Z,99918.00
2022-11-22T20:24:07.909Z,99923.97
2022-11-22T20:26:36.644Z,99926.97
2022-11-22T20:29:07.521Z,99934.88
2022-11-22T20:31:37.490Z,99936.38
2022-11-22T20:34:07.511Z,99929.25
2022-11-22T20:36:36.581Z,99931.16
2022-11-22T20:42:05.874Z,99925.47
2022-11-22T20:44:38.685Z,99920.25
2022-11-22T20:47:08.788Z,99914.47
2022-11-22T20:49:43.926Z,99919.44
2022-11-22T20:52:13.617Z,99921.31
2022-11-22T20:54:41.586Z,99928.53
2022-11-22T20:57:09.771Z,99926.69
2022-11-22T20:59:37.901Z,99926.22
2022-11-22T21:02:09.289Z,99912.34
2022-11-22T21:04:39.064Z,99919.91
2022-11-22T21:07:07.086Z,99917.19
2022-11-22T21:09:35.154Z,99931.72
2022-11-22T21:12:03.414Z,99924.47
2022-11-22T21:14:32.109Z,99934.72
2022-11-22T21:17:16.353Z,99935.38
2022-11-22T21:19:49.897Z,99938.88
2022-11-22T21:22:18.210Z,99940.00
2022-11-22T21:24:46.437Z,99943.00
2022-11-22T21:27:14.750Z,99948.34
2022-11-22T21:29:43.021Z,99943.16
2022-11-22T21:32:11.090Z,99933.94
2022-11-22T21:34:39.464Z,99942.78
2022-11-22T21:37:08.815Z,99946.69
2022-11-22T21:39:37.173Z,99940.53
2022-11-22T21:42:05.531Z,99941.34
2022-11-22T21:44:33.873Z,99943.91
2022-11-22T21:47:02.135Z,99951.06
2022-11-22T21:49:30.436Z,99945.78
2022-11-22T21:51:59.063Z,99951.81
2022-11-22T21:54:28.617Z,99955.13
2022-11-22T21:57:01.356Z,99958.22
2022-11-22T21:59:31.133Z,99960.06
2022-11-22T22:01:59.328Z,99958.16
2022-11-22T22:04:28.670Z,99954.50
2022-11-22T22:06:56.729Z,99956.31
2022-11-22T22:09:24.831Z,99940.16
2022-11-22T22:11:54.216Z,99942.50
2022-11-22T22:14:22.076Z,99937.69
2022-11-22T22:16:50.933Z,99942.59
2022-11-22T22:19:19.478Z,99937.69
2022-11-22T22:21:48.033Z,99939.03
2022-11-22T22:24:16.586Z,99937.16
2022-11-22T22:26:45.238Z,99947.69
2022-11-22T22:29:15.081Z,99942.41
2022-11-22T22:31:43.041Z,99948.53
2022-11-22T22:34:11.084Z,99953.38
2022-11-22T22:36:38.942Z,99955.09
2022-11-22T22:39:07.437Z,99945.09
2022-11-22T22:41:35.464Z,99945.59
2022-11-22T22:44:03.384Z,99939.19
2022-11-22T22:46:32.903Z,99943.16
2022-11-22T22:49:00.957Z,99935.25
2022-11-22T22:51:33.325Z,99942.09
2022-11-22T22:54:03.421Z,99939.81
2022-11-22T22:56:32.357Z,99945.00
2022-11-22T22:59:01.668Z,99940.84
2022-11-22T23:01:32.530Z,99936.13
2022-11-22T23:04:02.307Z,99941.47
2022-11-22T23:06:31.993Z,99942.81
2022-11-22T23:09:00.355Z,99943.31
2022-11-22T23:11:44.060Z,99938.41
2022-11-22T23:14:12.368Z,99941.19
2022-11-22T23:16:41.719Z,99944.91
2022-11-22T23:19:10.515Z,99951.66
2022-11-22T23:21:38.788Z,99943.75
2022-11-22T23:24:07.873Z,99944.38
2022-11-22T23:26:36.441Z,99945.81
2022-11-22T23:29:05.475Z,99942.72
2022-11-22T23:31:33.639Z,99940.09
2022-11-22T23:34:03.267Z,99938.47
2022-11-22T23:36:32.923Z,99943.94
2022-11-22T23:39:04.039Z,99941.31
2022-11-22T23:41:31.961Z,99936.53
2022-11-22T23:44:01.324Z,99941.22
2022-11-22T23:46:29.513Z,99943.81
2022-11-22T23:48:59.449Z,99937.09
2022-11-22T23:51:29.859Z,99941.53
2022-11-22T23:53:58.589Z,99931.53
2022-11-22T23:56:29.100Z,99940.44
2022-11-22T23:58:58.904Z,99944.53
